sensor_id;sensor_type;location;lat;lon;timestamp;P1;durP1;ratioP1;P2;durP2;ratioP2
56297;SDS011;42208;6.376;-10.782;2022-12-18T00:01:30;117.78;;;50.85;;
56297;SDS011;42208;6.376;-10.782;2022-12-18T00:04:01;155.35;;;56.78;;
56297;SDS011;42208;6.376;-10.782;2022-12-18T00:06:31;110.18;;;44.03;;
56297;SDS011;42208;6.376;-10.782;2022-12-18T00:09:02;144.55;;;55.63;;
56297;SDS011;42208;6.376;-10.782;2022-12-18T00:11:31;193.13;;;61.53;;
56297;SDS011;42208;6.376;-10.782;2022-12-18T00:14:00;138.65;;;45.30;;
56297;SDS011;42208;6.376;-10.782;2022-12-18T00:16:28;140.63;;;48.17;;
56297;SDS011;42208;6.376;-10.782;2022-12-18T00:18:58;95.50;;;36.55;;
56297;SDS011;42208;6.376;-10.782;2022-12-18T00:21:28;93.30;;;29.77;;
56297;SDS011;42208;6.376;-10.782;2022-12-18T00:23:57;100.18;;;35.42;;
56297;SDS011;42208;6.376;-10.782;2022-12-18T00:26:27;95.75;;;33.42;;
56297;SDS011;42208;6.376;-10.782;2022-12-18T00:29:05;91.65;;;32.10;;
56297;SDS011;42208;6.376;-10.782;2022-12-18T00:31:37;94.32;;;37.97;;
56297;SDS011;42208;6.376;-10.782;2022-12-18T00:34:06;100.18;;;37.67;;
56297;SDS011;42208;6.376;-10.782;2022-12-18T00:36:39;79.85;;;28.67;;
56297;SDS011;42208;6.376;-10.782;2022-12-18T00:39:08;108.45;;;39.53;;
56297;SDS011;42208;6.376;-10.782;2022-12-18T00:41:38;129.90;;;55.25;;
56297;SDS011;42208;6.376;-10.782;2022-12-18T00:44:06;154.73;;;68.28;;
56297;SDS011;42208;6.376;-10.782;2022-12-18T00:46:37;174.63;;;73.90;;
56297;SDS011;42208;6.376;-10.782;2022-12-18T00:49:06;168.82;;;70.80;;
56297;SDS011;42208;6.376;-10.782;2022-12-18T00:51:37;210.10;;;84.22;;
56297;SDS011;42208;6.376;-10.782;2022-12-18T00:54:05;183.15;;;80.63;;
56297;SDS011;42208;6.376;-10.782;2022-12-18T00:56:37;143.32;;;61.88;;
56297;SDS011;42208;6.376;-10.782;2022-12-18T00:59:15;134.55;;;51.13;;
56297;SDS011;42208;6.376;-10.782;2022-12-18T01:01:44;155.10;;;59.03;;
56297;SDS011;42208;6.376;-10.782;2022-12-18T01:04:13;143.65;;;59.55;;
56297;SDS011;42208;6.376;-10.782;2022-12-18T01:06:44;140.82;;;56.85;;
56297;SDS011;42208;6.376;-10.782;2022-12-18T01:09:15;136.38;;;53.72;;
56297;SDS011;42208;6.376;-10.782;2022-12-18T01:11:43;150.30;;;60.58;;
56297;SDS011;42208;6.376;-10.782;2022-12-18T01:14:11;142.20;;;62.05;;
56297;SDS011;42208;6.376;-10.782;2022-12-18T01:16:39;122.07;;;52.00;;
56297;SDS011;42208;6.376;-10.782;2022-12-18T01:19:08;133.07;;;49.38;;
56297;SDS011;42208;6.376;-10.782;2022-12-18T01:21:37;126.20;;;49.97;;
56297;SDS011;42208;6.376;-10.782;2022-12-18T01:24:05;122.20;;;53.33;;
56297;SDS011;42208;6.376;-10.782;2022-12-18T01:26:34;182.38;;;74.20;;
56297;SDS011;42208;6.376;-10.782;2022-12-18T01:29:02;166.07;;;69.15;;
56297;SDS011;42208;6.376;-10.782;2022-12-18T01:31:32;165.63;;;65.50;;
56297;SDS011;42208;6.376;-10.782;2022-12-18T01:34:01;172.32;;;69.22;;
56297;SDS011;42208;6.376;-10.782;2022-12-18T01:36:35;182.65;;;76.75;;
56297;SDS011;42208;6.376;-10.782;2022-12-18T01:39:06;184.00;;;77.60;;
56297;SDS011;42208;6.376;-10.782;2022-12-18T01:41:41;174.00;;;71.13;;
56297;SDS011;42208;6.376;-10.782;2022-12-18T01:47:34;164.10;;;74.20;;
56297;SDS011;42208;6.376;-10.782;2022-12-18T01:50:10;170.48;;;82.38;;
56297;SDS011;42208;6.376;-10.782;2022-12-18T01:53:07;195.15;;;93.13;;
56297;SDS011;42208;6.376;-10.782;2022-12-18T01:55:45;181.52;;;89.38;;
56297;SDS011;42208;6.376;-10.782;2022-12-18T01:58:20;176.98;;;97.97;;
56297;SDS011;42208;6.376;-10.782;2022-12-18T02:00:55;180.48;;;90.28;;
56297;SDS011;42208;6.376;-10.782;2022-12-18T02:03:24;170.73;;;88.85;;
56297;SDS011;42208;6.376;-10.782;2022-12-18T02:08:37;170.60;;;85.05;;
56297;SDS011;42208;6.376;-10.782;2022-12-18T02:11:29;148.75;;;72.05;;
56297;SDS011;42208;6.376;-10.782;2022-12-18T02:27:39;139.25;;;58.97;;
56297;SDS011;42208;6.376;-10.782;2022-12-18T02:30:09;126.82;;;59.45;;
56297;SDS011;42208;6.376;-10.782;2022-12-18T02:32:42;124.75;;;56.28;;
56297;SDS011;42208;6.376;-10.782;2022-12-18T02:35:20;132.90;;;60.80;;
56297;SDS011;42208;6.376;-10.782;2022-12-18T02:37:54;139.35;;;61.60;;
56297;SDS011;42208;6.376;-10.782;2022-12-18T02:40:26;119.55;;;58.33;;
56297;SDS011;42208;6.376;-10.782;2022-12-18T02:43:10;149.85;;;66.07;;
56297;SDS011;42208;6.376;-10.782;2022-12-18T02:45:52;120.80;;;60.15;;
56297;SDS011;42208;6.376;-10.782;2022-12-18T02:48:25;130.50;;;62.10;;
56297;SDS011;42208;6.376;-10.782;2022-12-18T02:51:13;130.05;;;58.40;;
56297;SDS011;42208;6.376;-10.782;2022-12-18T02:54:07;126.70;;;59.88;;
56297;SDS011;42208;6.376;-10.782;2022-12-18T02:56:39;123.07;;;57.70;;
56297;SDS011;42208;6.376;-10.782;2022-12-18T02:59:19;105.43;;;53.63;;
56297;SDS011;42208;6.376;-10.782;2022-12-18T03:02:16;126.53;;;56.33;;
56297;SDS011;42208;6.376;-10.782;2022-12-18T03:04:54;135.93;;;59.88;;
56297;SDS011;42208;6.376;-10.782;2022-12-18T03:07:49;128.32;;;55.63;;
56297;SDS011;42208;6.376;-10.782;2022-12-18T03:10:32;123.00;;;59.65;;
56297;SDS011;42208;6.376;-10.782;2022-12-18T03:13:06;136.93;;;58.85;;
56297;SDS011;42208;6.376;-10.782;2022-12-18T03:15:44;125.40;;;61.00;;
56297;SDS011;42208;6.376;-10.782;2022-12-18T03:18:17;117.68;;;57.85;;
56297;SDS011;42208;6.376;-10.782;2022-12-18T03:20:51;124.18;;;60.55;;
56297;SDS011;42208;6.376;-10.782;2022-12-18T03:23:25;140.50;;;61.67;;
56297;SDS011;42208;6.376;-10.782;2022-12-18T03:25:58;117.45;;;61.40;;
56297;SDS011;42208;6.376;-10.782;2022-12-18T03:28:38;134.95;;;62.13;;
56297;SDS011;42208;6.376;-10.782;2022-12-18T03:31:11;142.18;;;61.35;;
56297;SDS011;42208;6.376;-10.782;2022-12-18T03:33:47;137.88;;;60.17;;
56297;SDS011;42208;6.376;-10.782;2022-12-18T03:36:33;124.18;;;59.08;;
56297;SDS011;42208;6.376;-10.782;2022-12-18T03:39:01;144.95;;;60.78;;
56297;SDS011;42208;6.376;-10.782;2022-12-18T03:41:39;123.80;;;54.33;;
56297;SDS011;42208;6.376;-10.782;2022-12-18T03:44:31;109.97;;;51.63;;
56297;SDS011;42208;6.376;-10.782;2022-12-18T03:47:08;115.20;;;49.45;;
56297;SDS011;42208;6.376;-10.782;2022-12-18T03:52:26;83.25;;;43.50;;
56297;SDS011;42208;6.376;-10.782;2022-12-18T03:54:59;106.47;;;44.65;;
56297;SDS011;42208;6.376;-10.782;2022-12-18T03:57:30;94.90;;;42.63;;
56297;SDS011;42208;6.376;-10.782;2022-12-18T04:00:01;91.32;;;40.75;;
56297;SDS011;42208;6.376;-10.782;2022-12-18T04:03:00;90.70;;;42.08;;
56297;SDS011;42208;6.376;-10.782;2022-12-18T04:05:38;112.13;;;43.65;;
56297;SDS011;42208;6.376;-10.782;2022-12-18T04:08:10;94.20;;;41.20;;
56297;SDS011;42208;6.376;-10.782;2022-12-18T04:10:42;94.82;;;42.78;;
56297;SDS011;42208;6.376;-10.782;2022-12-18T04:13:11;86.78;;;42.28;;
56297;SDS011;42208;6.376;-10.782;2022-12-18T04:15:39;90.95;;;40.08;;
56297;SDS011;42208;6.376;-10.782;2022-12-18T04:18:13;77.07;;;40.35;;
56297;SDS011;42208;6.376;-10.782;2022-12-18T04:20:43;91.07;;;39.50;;
56297;SDS011;42208;6.376;-10.782;2022-12-18T04:23:11;75.53;;;37.80;;
56297;SDS011;42208;6.376;-10.782;2022-12-18T04:25:40;91.32;;;38.85;;
56297;SDS011;42208;6.376;-10.782;2022-12-18T04:28:12;89.65;;;40.17;;
56297;SDS011;42208;6.376;-10.782;2022-12-18T04:30:41;82.63;;;38.25;;
56297;SDS011;42208;6.376;-10.782;2022-12-18T04:33:10;72.20;;;36.67;;
56297;SDS011;42208;6.376;-10.782;2022-12-18T04:35:43;74.82;;;36.28;;
56297;SDS011;42208;6.376;-10.782;2022-12-18T04:38:12;74.95;;;36.97;;
56297;SDS011;42208;6.376;-10.782;2022-12-18T04:40:40;85.20;;;37.05;;
56297;SDS011;42208;6.376;-10.782;2022-12-18T04:43:18;69.05;;;34.83;;
56297;SDS011;42208;6.376;-10.782;2022-12-18T04:45:47;77.38;;;36.03;;
56297;SDS011;42208;6.376;-10.782;2022-12-18T04:48:18;78.00;;;36.23;;
56297;SDS011;42208;6.376;-10.782;2022-12-18T04:50:47;75.75;;;35.75;;
56297;SDS011;42208;6.376;-10.782;2022-12-18T04:53:15;82.55;;;35.55;;
56297;SDS011;42208;6.376;-10.782;2022-12-18T04:55:43;86.38;;;38.30;;
56297;SDS011;42208;6.376;-10.782;2022-12-18T04:58:12;84.22;;;38.72;;
56297;SDS011;42208;6.376;-10.782;2022-12-18T05:00:40;81.25;;;36.30;;
56297;SDS011;42208;6.376;-10.782;2022-12-18T05:03:08;71.30;;;35.85;;
56297;SDS011;42208;6.376;-10.782;2022-12-18T05:05:36;79.32;;;32.60;;
56297;SDS011;42208;6.376;-10.782;2022-12-18T05:08:05;85.72;;;32.90;;
56297;SDS011;42208;6.376;-10.782;2022-12-18T05:10:33;69.15;;;31.55;;
56297;SDS011;42208;6.376;-10.782;2022-12-18T05:13:04;68.55;;;30.40;;
56297;SDS011;42208;6.376;-10.782;2022-12-18T05:15:32;82.03;;;30.55;;
56297;SDS011;42208;6.376;-10.782;2022-12-18T05:18:01;68.38;;;29.00;;
56297;SDS011;42208;6.376;-10.782;2022-12-18T05:20:30;63.17;;;27.65;;
56297;SDS011;42208;6.376;-10.782;2022-12-18T05:22:59;67.13;;;27.55;;
56297;SDS011;42208;6.376;-10.782;2022-12-18T05:25:27;67.70;;;27.63;;
56297;SDS011;42208;6.376;-10.782;2022-12-18T05:27:55;54.45;;;25.17;;
56297;SDS011;42208;6.376;-10.782;2022-12-18T05:30:24;62.13;;;26.77;;
56297;SDS011;42208;6.376;-10.782;2022-12-18T05:32:53;73.47;;;27.90;;
56297;SDS011;42208;6.376;-10.782;2022-12-18T05:35:21;55.70;;;24.58;;
56297;SDS011;42208;6.376;-10.782;2022-12-18T05:37:49;65.45;;;27.63;;
56297;SDS011;42208;6.376;-10.782;2022-12-18T05:40:18;79.05;;;28.30;;
56297;SDS011;42208;6.376;-10.782;2022-12-18T05:42:46;57.45;;;26.05;;
56297;SDS011;42208;6.376;-10.782;2022-12-18T05:45:14;74.72;;;27.02;;
56297;SDS011;42208;6.376;-10.782;2022-12-18T05:47:43;67.53;;;24.90;;
56297;SDS011;42208;6.376;-10.782;2022-12-18T05:50:11;68.18;;;24.15;;
56297;SDS011;42208;6.376;-10.782;2022-12-18T05:52:39;56.58;;;23.33;;
56297;SDS011;42208;6.376;-10.782;2022-12-18T05:55:07;63.72;;;25.45;;
56297;SDS011;42208;6.376;-10.782;2022-12-18T05:57:36;61.97;;;25.30;;
56297;SDS011;42208;6.376;-10.782;2022-12-18T06:00:04;59.05;;;26.20;;
56297;SDS011;42208;6.376;-10.782;2022-12-18T06:02:37;70.68;;;26.63;;
56297;SDS011;42208;6.376;-10.782;2022-12-18T06:05:06;63.00;;;26.05;;
56297;SDS011;42208;6.376;-10.782;2022-12-18T06:07:34;73.35;;;28.27;;
56297;SDS011;42208;6.376;-10.782;2022-12-18T06:10:03;61.30;;;26.58;;
56297;SDS011;42208;6.376;-10.782;2022-12-18T06:12:31;67.53;;;25.98;;
56297;SDS011;42208;6.376;-10.782;2022-12-18T06:15:00;61.38;;;25.38;;
56297;SDS011;42208;6.376;-10.782;2022-12-18T06:17:31;63.90;;;26.92;;
56297;SDS011;42208;6.376;-10.782;2022-12-18T06:20:00;65.78;;;25.98;;
56297;SDS011;42208;6.376;-10.782;2022-12-18T06:22:30;56.08;;;26.65;;
56297;SDS011;42208;6.376;-10.782;2022-12-18T06:24:59;66.63;;;26.65;;
56297;SDS011;42208;6.376;-10.782;2022-12-18T06:27:27;67.57;;;29.27;;
56297;SDS011;42208;6.376;-10.782;2022-12-18T06:29:56;65.30;;;30.73;;
56297;SDS011;42208;6.376;-10.782;2022-12-18T06:32:24;56.47;;;29.95;;
56297;SDS011;42208;6.376;-10.782;2022-12-18T06:34:52;72.22;;;32.15;;
56297;SDS011;42208;6.376;-10.782;2022-12-18T06:37:21;78.25;;;34.75;;
56297;SDS011;42208;6.376;-10.782;2022-12-18T06:39:49;65.72;;;33.05;;
56297;SDS011;42208;6.376;-10.782;2022-12-18T06:42:18;89.30;;;37.97;;
56297;SDS011;42208;6.376;-10.782;2022-12-18T06:44:49;80.15;;;38.92;;
56297;SDS011;42208;6.376;-10.782;2022-12-18T06:47:17;84.80;;;41.75;;
56297;SDS011;42208;6.376;-10.782;2022-12-18T06:49:46;88.28;;;41.80;;
56297;SDS011;42208;6.376;-10.782;2022-12-18T06:52:16;104.18;;;45.05;;
56297;SDS011;42208;6.376;-10.782;2022-12-18T06:54:44;96.55;;;46.20;;
56297;SDS011;42208;6.376;-10.782;2022-12-18T06:57:12;103.85;;;41.95;;
56297;SDS011;42208;6.376;-10.782;2022-12-18T06:59:41;100.60;;;44.50;;
56297;SDS011;42208;6.376;-10.782;2022-12-18T07:02:12;94.55;;;43.28;;
56297;SDS011;42208;6.376;-10.782;2022-12-18T07:04:41;94.43;;;44.53;;
56297;SDS011;42208;6.376;-10.782;2022-12-18T07:07:09;97.28;;;43.67;;
56297;SDS011;42208;6.376;-10.782;2022-12-18T07:09:38;98.45;;;44.28;;
56297;SDS011;42208;6.376;-10.782;2022-12-18T07:12:06;103.93;;;46.10;;
56297;SDS011;42208;6.376;-10.782;2022-12-18T07:14:35;91.43;;;44.80;;
56297;SDS011;42208;6.376;-10.782;2022-12-18T07:17:03;105.55;;;48.88;;
56297;SDS011;42208;6.376;-10.782;2022-12-18T07:19:32;109.97;;;47.40;;
56297;SDS011;42208;6.376;-10.782;2022-12-18T07:22:01;101.03;;;46.60;;
56297;SDS011;42208;6.376;-10.782;2022-12-18T07:24:30;102.25;;;47.13;;
56297;SDS011;42208;6.376;-10.782;2022-12-18T07:27:00;93.72;;;43.80;;
56297;SDS011;42208;6.376;-10.782;2022-12-18T07:29:28;106.90;;;44.53;;
56297;SDS011;42208;6.376;-10.782;2022-12-18T07:31:56;92.90;;;41.78;;
56297;SDS011;42208;6.376;-10.782;2022-12-18T07:34:25;85.80;;;42.33;;
56297;SDS011;42208;6.376;-10.782;2022-12-18T07:36:53;85.57;;;40.40;;
56297;SDS011;42208;6.376;-10.782;2022-12-18T07:39:22;93.22;;;41.08;;
56297;SDS011;42208;6.376;-10.782;2022-12-18T07:41:50;90.28;;;39.75;;
56297;SDS011;42208;6.376;-10.782;2022-12-18T07:44:19;79.65;;;39.45;;
56297;SDS011;42208;6.376;-10.782;2022-12-18T07:46:48;75.20;;;39.13;;
56297;SDS011;42208;6.376;-10.782;2022-12-18T07:49:16;86.72;;;38.40;;
56297;SDS011;42208;6.376;-10.782;2022-12-18T07:51:44;77.32;;;35.53;;
56297;SDS011;42208;6.376;-10.782;2022-12-18T07:54:12;71.00;;;35.08;;
56297;SDS011;42208;6.376;-10.782;2022-12-18T07:56:41;79.60;;;38.05;;
56297;SDS011;42208;6.376;-10.782;2022-12-18T07:59:09;86.28;;;37.10;;
56297;SDS011;42208;6.376;-10.782;2022-12-18T08:01:38;83.97;;;35.88;;
56297;SDS011;42208;6.376;-10.782;2022-12-18T08:04:06;66.00;;;33.45;;
56297;SDS011;42208;6.376;-10.782;2022-12-18T08:06:35;70.53;;;34.00;;
56297;SDS011;42208;6.376;-10.782;2022-12-18T08:09:03;73.65;;;32.55;;
56297;SDS011;42208;6.376;-10.782;2022-12-18T08:11:31;75.05;;;36.03;;
56297;SDS011;42208;6.376;-10.782;2022-12-18T08:14:00;72.60;;;33.95;;
56297;SDS011;42208;6.376;-10.782;2022-12-18T08:16:28;63.13;;;30.48;;
56297;SDS011;42208;6.376;-10.782;2022-12-18T08:18:56;73.47;;;30.92;;
56297;SDS011;42208;6.376;-10.782;2022-12-18T08:21:26;54.60;;;29.50;;
56297;SDS011;42208;6.376;-10.782;2022-12-18T08:23:59;74.70;;;29.73;;
56297;SDS011;42208;6.376;-10.782;2022-12-18T08:26:29;63.42;;;29.17;;
56297;SDS011;42208;6.376;-10.782;2022-12-18T08:28:59;60.33;;;30.48;;
56297;SDS011;42208;6.376;-10.782;2022-12-18T08:31:28;58.90;;;30.67;;
56297;SDS011;42208;6.376;-10.782;2022-12-18T08:33:58;62.20;;;31.13;;
56297;SDS011;42208;6.376;-10.782;2022-12-18T08:36:26;60.22;;;30.38;;
56297;SDS011;42208;6.376;-10.782;2022-12-18T08:38:54;63.97;;;29.98;;
56297;SDS011;42208;6.376;-10.782;2022-12-18T08:41:24;58.05;;;27.92;;
56297;SDS011;42208;6.376;-10.782;2022-12-18T08:43:53;74.35;;;30.45;;
56297;SDS011;42208;6.376;-10.782;2022-12-18T08:46:22;65.00;;;29.27;;
56297;SDS011;42208;6.376;-10.782;2022-12-18T08:48:52;61.92;;;27.02;;
56297;SDS011;42208;6.376;-10.782;2022-12-18T08:51:22;58.78;;;26.38;;
56297;SDS011;42208;6.376;-10.782;2022-12-18T08:53:50;55.67;;;26.35;;
56297;SDS011;42208;6.376;-10.782;2022-12-18T08:56:19;56.40;;;25.38;;
56297;SDS011;42208;6.376;-10.782;2022-12-18T08:58:47;63.25;;;25.77;;
56297;SDS011;42208;6.376;-10.782;2022-12-18T09:01:18;53.43;;;27.03;;
56297;SDS011;42208;6.376;-10.782;2022-12-18T09:03:50;61.85;;;26.02;;
56297;SDS011;42208;6.376;-10.782;2022-12-18T09:06:20;47.75;;;23.15;;
56297;SDS011;42208;6.376;-10.782;2022-12-18T09:08:49;48.70;;;23.83;;
56297;SDS011;42208;6.376;-10.782;2022-12-18T09:11:22;47.28;;;23.17;;
56297;SDS011;42208;6.376;-10.782;2022-12-18T09:13:52;50.70;;;23.25;;
56297;SDS011;42208;6.376;-10.782;2022-12-18T09:16:22;44.55;;;22.80;;
56297;SDS011;42208;6.376;-10.782;2022-12-18T09:18:58;40.38;;;20.98;;
56297;SDS011;42208;6.376;-10.782;2022-12-18T09:21:28;50.70;;;23.00;;
56297;SDS011;42208;6.376;-10.782;2022-12-18T09:24:03;58.58;;;23.33;;
56297;SDS011;42208;6.376;-10.782;2022-12-18T09:26:35;48.97;;;24.05;;
56297;SDS011;42208;6.376;-10.782;2022-12-18T09:29:04;52.35;;;23.83;;
56297;SDS011;42208;6.376;-10.782;2022-12-18T09:31:33;63.13;;;24.55;;
56297;SDS011;42208;6.376;-10.782;2022-12-18T09:34:01;58.30;;;24.20;;
56297;SDS011;42208;6.376;-10.782;2022-12-18T09:36:31;52.75;;;23.05;;
56297;SDS011;42208;6.376;-10.782;2022-12-18T09:38:59;46.78;;;21.98;;
56297;SDS011;42208;6.376;-10.782;2022-12-18T09:41:41;52.10;;;22.15;;
56297;SDS011;42208;6.376;-10.782;2022-12-18T09:49:34;47.10;;;18.45;;
56297;SDS011;42208;6.376;-10.782;2022-12-18T09:52:11;37.80;;;17.25;;
56297;SDS011;42208;6.376;-10.782;2022-12-18T09:54:53;43.17;;;17.13;;
56297;SDS011;42208;6.376;-10.782;2022-12-18T09:57:25;41.50;;;17.70;;
56297;SDS011;42208;6.376;-10.782;2022-12-18T10:00:36;41.00;;;18.10;;
56297;SDS011;42208;6.376;-10.782;2022-12-18T10:02:47;50.38;;;17.75;;
56297;SDS011;42208;6.376;-10.782;2022-12-18T10:05:20;44.28;;;19.00;;
56297;SDS011;42208;6.376;-10.782;2022-12-18T10:10:51;44.08;;;18.85;;
56297;SDS011;42208;6.376;-10.782;2022-12-18T10:16:13;37.58;;;16.67;;
56297;SDS011;42208;6.376;-10.782;2022-12-18T10:26:55;46.45;;;16.67;;
56297;SDS011;42208;6.376;-10.782;2022-12-18T10:29:37;41.45;;;17.77;;
56297;SDS011;42208;6.376;-10.782;2022-12-18T10:32:06;45.83;;;18.40;;
56297;SDS011;42208;6.376;-10.782;2022-12-18T10:34:37;46.55;;;18.05;;
56297;SDS011;42208;6.376;-10.782;2022-12-18T10:37:06;46.25;;;17.65;;
56297;SDS011;42208;6.376;-10.782;2022-12-18T10:39:39;41.95;;;16.95;;
56297;SDS011;42208;6.376;-10.782;2022-12-18T10:42:18;43.28;;;17.38;;
56297;SDS011;42208;6.376;-10.782;2022-12-18T10:44:47;49.83;;;17.05;;
56297;SDS011;42208;6.376;-10.782;2022-12-18T10:47:36;54.85;;;16.63;;
56297;SDS011;42208;6.376;-10.782;2022-12-18T10:50:28;43.28;;;16.75;;
56297;SDS011;42208;6.376;-10.782;2022-12-18T10:53:23;57.10;;;17.52;;
56297;SDS011;42208;6.376;-10.782;2022-12-18T10:55:57;42.97;;;17.73;;
56297;SDS011;42208;6.376;-10.782;2022-12-18T10:58:33;40.58;;;15.90;;
56297;SDS011;42208;6.376;-10.782;2022-12-18T11:01:16;46.45;;;16.17;;
56297;SDS011;42208;6.376;-10.782;2022-12-18T11:06:28;40.03;;;16.67;;
56297;SDS011;42208;6.376;-10.782;2022-12-18T11:09:17;41.20;;;16.05;;
56297;SDS011;42208;6.376;-10.782;2022-12-18T11:11:48;44.45;;;16.05;;
56297;SDS011;42208;6.376;-10.782;2022-12-18T11:14:20;41.08;;;17.23;;
56297;SDS011;42208;6.376;-10.782;2022-12-18T11:16:54;47.40;;;17.15;;
56297;SDS011;42208;6.376;-10.782;2022-12-18T11:19:45;55.13;;;18.80;;
56297;SDS011;42208;6.376;-10.782;2022-12-18T11:22:40;45.85;;;16.70;;
56297;SDS011;42208;6.376;-10.782;2022-12-18T11:28:03;44.63;;;19.92;;
56297;SDS011;42208;6.376;-10.782;2022-12-18T11:37:00;72.50;;;21.20;;
56297;SDS011;42208;6.376;-10.782;2022-12-18T11:39:35;61.20;;;22.45;;
56297;SDS011;42208;6.376;-10.782;2022-12-18T11:42:18;51.45;;;22.55;;
56297;SDS011;42208;6.376;-10.782;2022-12-18T11:44:55;59.33;;;22.67;;
56297;SDS011;42208;6.376;-10.782;2022-12-18T11:48:05;73.15;;;25.52;;
56297;SDS011;42208;6.376;-10.782;2022-12-18T11:50:49;61.28;;;25.83;;
56297;SDS011;42208;6.376;-10.782;2022-12-18T11:53:20;79.88;;;27.52;;
56297;SDS011;42208;6.376;-10.782;2022-12-18T12:01:57;72.13;;;24.20;;
56297;SDS011;42208;6.376;-10.782;2022-12-18T12:04:15;66.38;;;25.90;;
56297;SDS011;42208;6.376;-10.782;2022-12-18T12:14:42;130.82;;;49.22;;
56297;SDS011;42208;6.376;-10.782;2022-12-18T12:17:31;103.45;;;49.15;;
56297;SDS011;42208;6.376;-10.782;2022-12-18T12:38:07;58.30;;;16.05;;
56297;SDS011;42208;6.376;-10.782;2022-12-18T12:41:02;58.28;;;21.65;;
56297;SDS011;42208;6.376;-10.782;2022-12-18T12:43:44;60.78;;;19.27;;
56297;SDS011;42208;6.376;-10.782;2022-12-18T12:46:17;81.00;;;23.65;;
56297;SDS011;42208;6.376;-10.782;2022-12-18T12:48:51;71.80;;;24.63;;
56297;SDS011;42208;6.376;-10.782;2022-12-18T12:51:24;96.15;;;31.23;;
56297;SDS011;42208;6.376;-10.782;2022-12-18T12:53:53;91.13;;;24.98;;
56297;SDS011;42208;6.376;-10.782;2022-12-18T12:56:24;102.95;;;31.17;;
56297;SDS011;42208;6.376;-10.782;2022-12-18T13:13:02;63.78;;;22.05;;
56297;SDS011;42208;6.376;-10.782;2022-12-18T13:16:05;97.70;;;33.05;;
56297;SDS011;42208;6.376;-10.782;2022-12-18T13:18:35;56.75;;;18.27;;
56297;SDS011;42208;6.376;-10.782;2022-12-18T13:21:18;74.68;;;23.30;;
56297;SDS011;42208;6.376;-10.782;2022-12-18T13:24:13;126.65;;;48.55;;
56297;SDS011;42208;6.376;-10.782;2022-12-18T13:26:50;50.50;;;17.83;;
56297;SDS011;42208;6.376;-10.782;2022-12-18T13:32:23;59.55;;;23.95;;
56297;SDS011;42208;6.376;-10.782;2022-12-18T13:37:53;48.60;;;17.80;;
56297;SDS011;42208;6.376;-10.782;2022-12-18T13:48:23;82.82;;;25.48;;
56297;SDS011;42208;6.376;-10.782;2022-12-18T13:50:55;44.35;;;16.90;;
56297;SDS011;42208;6.376;-10.782;2022-12-18T13:53:27;47.38;;;16.73;;
56297;SDS011;42208;6.376;-10.782;2022-12-18T13:56:00;50.25;;;17.77;;
56297;SDS011;42208;6.376;-10.782;2022-12-18T13:58:31;82.07;;;24.20;;
56297;SDS011;42208;6.376;-10.782;2022-12-18T14:00:59;48.42;;;13.93;;
56297;SDS011;42208;6.376;-10.782;2022-12-18T14:03:28;65.18;;;20.33;;
56297;SDS011;42208;6.376;-10.782;2022-12-18T14:06:07;59.30;;;20.95;;
56297;SDS011;42208;6.376;-10.782;2022-12-18T14:08:39;57.45;;;19.73;;
56297;SDS011;42208;6.376;-10.782;2022-12-18T14:11:18;48.53;;;15.35;;
56297;SDS011;42208;6.376;-10.782;2022-12-18T14:13:51;63.28;;;21.20;;
56297;SDS011;42208;6.376;-10.782;2022-12-18T14:16:20;66.43;;;22.88;;
56297;SDS011;42208;6.376;-10.782;2022-12-18T14:18:52;45.65;;;15.80;;
56297;SDS011;42208;6.376;-10.782;2022-12-18T14:21:40;46.37;;;14.20;;
56297;SDS011;42208;6.376;-10.782;2022-12-18T14:24:18;62.47;;;18.67;;
56297;SDS011;42208;6.376;-10.782;2022-12-18T14:29:24;50.92;;;18.90;;
56297;SDS011;42208;6.376;-10.782;2022-12-18T14:32:31;50.80;;;18.00;;
56297;SDS011;42208;6.376;-10.782;2022-12-18T14:34:53;31.88;;;13.25;;
56297;SDS011;42208;6.376;-10.782;2022-12-18T14:37:23;60.40;;;21.33;;
56297;SDS011;42208;6.376;-10.782;2022-12-18T14:39:53;46.47;;;15.73;;
56297;SDS011;42208;6.376;-10.782;2022-12-18T14:42:33;24.88;;;11.32;;
56297;SDS011;42208;6.376;-10.782;2022-12-18T14:48:09;27.88;;;12.50;;
56297;SDS011;42208;6.376;-10.782;2022-12-18T14:51:02;38.05;;;13.27;;
56297;SDS011;42208;6.376;-10.782;2022-12-18T14:53:42;56.55;;;19.52;;
56297;SDS011;42208;6.376;-10.782;2022-12-18T14:56:34;118.30;;;54.55;;
56297;SDS011;42208;6.376;-10.782;2022-12-18T14:59:20;46.35;;;16.50;;
56297;SDS011;42208;6.376;-10.782;2022-12-18T15:01:58;80.47;;;29.98;;
56297;SDS011;42208;6.376;-10.782;2022-12-18T15:04:33;68.30;;;22.98;;
56297;SDS011;42208;6.376;-10.782;2022-12-18T15:09:41;57.53;;;20.10;;
56297;SDS011;42208;6.376;-10.782;2022-12-18T15:12:36;54.90;;;15.63;;
56297;SDS011;42208;6.376;-10.782;2022-12-18T15:23:25;44.92;;;14.52;;
56297;SDS011;42208;6.376;-10.782;2022-12-18T15:25:55;66.45;;;22.40;;
56297;SDS011;42208;6.376;-10.782;2022-12-18T15:28:45;54.65;;;15.77;;
56297;SDS011;42208;6.376;-10.782;2022-12-18T15:36:20;31.30;;;12.73;;
56297;SDS011;42208;6.376;-10.782;2022-12-18T15:38:56;41.38;;;15.00;;
56297;SDS011;42208;6.376;-10.782;2022-12-18T15:41:33;65.28;;;20.58;;
56297;SDS011;42208;6.376;-10.782;2022-12-18T15:44:03;84.40;;;28.42;;
56297;SDS011;42208;6.376;-10.782;2022-12-18T15:46:48;45.33;;;16.65;;
56297;SDS011;42208;6.376;-10.782;2022-12-18T15:49:16;66.18;;;24.30;;
56297;SDS011;42208;6.376;-10.782;2022-12-18T15:51:45;45.03;;;15.38;;
56297;SDS011;42208;6.376;-10.782;2022-12-18T15:54:26;61.97;;;22.05;;
56297;SDS011;42208;6.376;-10.782;2022-12-18T15:56:55;81.57;;;26.38;;
56297;SDS011;42208;6.376;-10.782;2022-12-18T15:59:24;49.88;;;16.38;;
56297;SDS011;42208;6.376;-10.782;2022-12-18T16:01:53;51.28;;;16.27;;
56297;SDS011;42208;6.376;-10.782;2022-12-18T16:04:22;46.13;;;14.05;;
56297;SDS011;42208;6.376;-10.782;2022-12-18T16:06:50;39.90;;;13.68;;
56297;SDS011;42208;6.376;-10.782;2022-12-18T16:09:39;38.63;;;16.38;;
56297;SDS011;42208;6.376;-10.782;2022-12-18T16:12:18;44.40;;;16.92;;
56297;SDS011;42208;6.376;-10.782;2022-12-18T16:14:49;63.38;;;18.63;;
56297;SDS011;42208;6.376;-10.782;2022-12-18T16:17:18;37.85;;;13.77;;
56297;SDS011;42208;6.376;-10.782;2022-12-18T16:19:46;35.75;;;13.45;;
56297;SDS011;42208;6.376;-10.782;2022-12-18T16:22:19;43.13;;;12.50;;
56297;SDS011;42208;6.376;-10.782;2022-12-18T16:24:51;48.50;;;15.73;;
56297;SDS011;42208;6.376;-10.782;2022-12-18T16:27:20;47.75;;;12.93;;
56297;SDS011;42208;6.376;-10.782;2022-12-18T16:29:49;65.97;;;26.80;;
56297;SDS011;42208;6.376;-10.782;2022-12-18T16:32:18;49.38;;;17.63;;
56297;SDS011;42208;6.376;-10.782;2022-12-18T16:34:49;47.80;;;16.80;;
56297;SDS011;42208;6.376;-10.782;2022-12-18T16:37:17;74.97;;;20.63;;
56297;SDS011;42208;6.376;-10.782;2022-12-18T16:39:46;45.35;;;15.63;;
56297;SDS011;42208;6.376;-10.782;2022-12-18T16:42:15;46.28;;;14.30;;
56297;SDS011;42208;6.376;-10.782;2022-12-18T16:44:46;57.80;;;18.88;;
56297;SDS011;42208;6.376;-10.782;2022-12-18T16:47:15;71.45;;;23.23;;
56297;SDS011;42208;6.376;-10.782;2022-12-18T16:49:44;54.72;;;17.98;;
56297;SDS011;42208;6.376;-10.782;2022-12-18T16:52:12;74.20;;;21.13;;
56297;SDS011;42208;6.376;-10.782;2022-12-18T16:54:41;31.88;;;13.70;;